createdAt,value
2023-04-01T00:00:20.727Z,6.22
2023-04-01T00:02:48.821Z,6.17
2023-04-01T00:05:17.364Z,6.16
2023-04-01T00:07:45.035Z,6.21
2023-04-01T00:10:13.916Z,6.10
2023-04-01T00:12:43.210Z,6.09
2023-04-01T00:15:13.028Z,6.08
2023-04-01T00:17:40.822Z,6.05
2023-04-01T00:20:10.292Z,6.03
2023-04-01T00:22:37.923Z,5.99
2023-04-01T00:25:06.494Z,5.99
2023-04-01T00:27:34.136Z,6.00
2023-04-01T00:30:03.242Z,5.96
2023-04-01T00:32:31.571Z,5.94
2023-04-01T00:35:00.455Z,5.97
2023-04-01T00:37:28.687Z,5.99
2023-04-01T00:39:56.676Z,6.01
2023-04-01T00:42:24.428Z,6.04
2023-04-01T00:44:53.358Z,6.06
2023-04-01T00:47:23.137Z,6.05
2023-04-01T00:49:52.851Z,6.09
2023-04-01T00:52:23.661Z,6.11
2023-04-01T00:54:53.916Z,6.17
2023-04-01T00:57:24.261Z,6.19
2023-04-01T00:59:53.666Z,6.22
2023-04-01T01:02:23.841Z,6.25
2023-04-01T01:04:51.511Z,6.33
2023-04-01T01:07:26.455Z,6.36
2023-04-01T01:10:00.742Z,6.39
2023-04-01T01:12:32.293Z,6.40
2023-04-01T01:15:04.893Z,6.42
2023-04-01T01:17:42.604Z,6.44
2023-04-01T01:20:34.023Z,6.44
2023-04-01T01:23:35.875Z,6.46
2023-04-01T01:26:22.035Z,6.48
2023-04-01T01:28:54.908Z,6.47
2023-04-01T01:31:25.826Z,6.48
2023-04-01T01:34:02.434Z,6.49
2023-04-01T01:36:35.610Z,6.47
2023-04-01T01:39:03.869Z,6.51
2023-04-01T01:41:33.968Z,6.53
2023-04-01T01:44:02.021Z,6.52
2023-04-01T01:46:30.614Z,6.54
2023-04-01T01:48:59.281Z,6.54
2023-04-01T01:51:28.902Z,6.56
2023-04-01T01:53:57.949Z,6.53
2023-04-01T01:56:28.168Z,6.48
2023-04-01T01:58:58.060Z,6.54
2023-04-01T02:01:27.924Z,6.52
2023-04-01T02:03:55.980Z,6.53
2023-04-01T02:06:25.533Z,6.54
2023-04-01T02:08:55.708Z,6.54
2023-04-01T02:11:28.422Z,6.58
2023-04-01T02:13:58.237Z,6.61
2023-04-01T02:16:28.910Z,6.61
2023-04-01T02:18:57.677Z,6.60
2023-04-01T02:21:26.861Z,6.58
2023-04-01T02:23:55.661Z,6.60
2023-04-01T02:26:26.066Z,6.58
2023-04-01T02:28:55.197Z,6.54
2023-04-01T02:31:23.816Z,6.54
2023-04-01T02:33:51.834Z,6.55
2023-04-01T02:36:19.769Z,6.52
2023-04-01T02:38:48.839Z,6.52
2023-04-01T02:41:16.518Z,6.48
2023-04-01T02:43:45.565Z,6.50
2023-04-01T02:46:13.265Z,6.51
2023-04-01T02:48:40.929Z,6.50
2023-04-01T02:51:08.791Z,6.46
2023-04-01T02:53:36.500Z,6.47
2023-04-01T02:56:04.314Z,6.45
2023-04-01T02:58:31.986Z,6.44
2023-04-01T03:01:01.118Z,6.45
2023-04-01T03:03:28.795Z,6.41
2023-04-01T03:05:57.307Z,6.40
2023-04-01T03:08:24.955Z,6.38
2023-04-01T03:10:52.605Z,6.34
2023-04-01T03:13:20.271Z,6.29
2023-04-01T03:15:47.980Z,6.30
2023-04-01T03:18:17.114Z,6.26
2023-04-01T03:20:44.814Z,6.21
2023-04-01T03:23:12.496Z,6.22
2023-04-01T03:25:40.137Z,6.13
2023-04-01T03:28:07.789Z,6.16
2023-04-01T03:30:35.482Z,6.17
2023-04-01T03:33:03.911Z,6.13
2023-04-01T03:35:33.267Z,6.15
2023-04-01T03:38:01.072Z,6.13
2023-04-01T03:40:28.690Z,6.13
2023-04-01T03:42:57.104Z,6.12
2023-04-01T03:45:24.862Z,6.07
2023-04-01T03:47:52.522Z,6.09
2023-04-01T03:50:20.630Z,6.14
2023-04-01T03:52:49.650Z,6.16
2023-04-01T03:55:19.016Z,6.15
2023-04-01T03:57:46.670Z,6.19
2023-04-01T04:00:14.824Z,6.21
2023-04-01T04:02:42.483Z,6.18
2023-04-01T04:05:10.671Z,6.21
2023-04-01T04:07:38.574Z,6.24
2023-04-01T04:10:08.874Z,6.26
2023-04-01T04:12:36.481Z,6.27
2023-04-01T04:15:04.269Z,6.32
2023-04-01T04:17:31.897Z,6.33
2023-04-01T04:19:59.525Z,6.34
2023-04-01T04:22:27.242Z,6.36
2023-04-01T04:24:54.838Z,6.35
2023-04-01T04:27:23.805Z,6.39
2023-04-01T04:29:51.405Z,6.40
2023-04-01T04:32:19.027Z,6.42
2023-04-01T04:34:46.686Z,6.43
2023-04-01T04:37:14.337Z,6.43
2023-04-01T04:39:41.964Z,6.45
2023-04-01T04:42:09.650Z,6.46
2023-04-01T04:44:38.834Z,6.52
2023-04-01T04:47:06.533Z,6.59
2023-04-01T04:49:34.267Z,6.60
2023-04-01T04:52:01.909Z,6.56
2023-04-01T04:54:29.512Z,6.59
2023-04-01T04:56:57.304Z,6.62
2023-04-01T04:59:25.027Z,6.64
2023-04-01T05:01:54.079Z,6.67
2023-04-01T05:04:21.688Z,6.69
2023-04-01T05:06:49.333Z,6.70
2023-04-01T05:09:17.126Z,6.75
2023-04-01T05:11:44.760Z,6.73
2023-04-01T05:14:15.141Z,6.71
2023-04-01T05:16:42.831Z,6.74
2023-04-01T05:19:11.893Z,6.73
2023-04-01T05:21:39.538Z,6.71
2023-04-01T05:24:09.757Z,6.72
2023-04-01T05:26:38.277Z,6.73
2023-04-01T05:29:06.364Z,6.66
2023-04-01T05:31:34.078Z,6.66
2023-04-01T05:34:01.690Z,6.61
2023-04-01T05:36:31.119Z,6.62
2023-04-01T05:38:58.743Z,6.63
2023-04-01T05:41:26.392Z,6.68
2023-04-01T05:43:54.049Z,6.68
2023-04-01T05:46:21.836Z,6.68
2023-04-01T05:48:49.558Z,6.76
2023-04-01T05:51:17.777Z,6.80
2023-04-01T05:53:46.818Z,6.85
2023-04-01T05:56:14.759Z,6.90
2023-04-01T05:58:42.441Z,6.94
2023-04-01T06:01:15.944Z,6.89
2023-04-01T06:03:44.461Z,6.92
2023-04-01T06:06:16.497Z,6.99
2023-04-01T06:08:46.318Z,7.06
2023-04-01T06:11:21.359Z,7.10
2023-04-01T06:14:01.760Z,7.15
2023-04-01T06:16:36.997Z,7.18
2023-04-01T06:19:20.207Z,7.24
2023-04-01T06:22:26.758Z,7.39
2023-04-01T06:25:18.651Z,7.61
2023-04-01T06:27:56.586Z,7.69
2023-04-01T06:30:34.594Z,7.74
2023-04-01T06:33:19.456Z,7.79
2023-04-01T06:36:04.533Z,7.75
2023-04-01T06:38:47.893Z,7.82
2023-04-01T06:41:48.297Z,7.80
2023-04-01T06:44:20.353Z,7.81
2023-04-01T06:46:50.260Z,7.89
2023-04-01T06:49:33.606Z,7.84
2023-04-01T06:52:06.344Z,7.90
2023-04-01T06:54:37.071Z,7.89
2023-04-01T06:57:14.457Z,7.82
2023-04-01T06:59:43.080Z,7.86
2023-04-01T07:02:20.896Z,7.93
2023-04-01T07:04:51.014Z,7.91
2023-04-01T07:07:23.926Z,7.97
2023-04-01T07:09:53.814Z,8.01
2023-04-01T07:12:28.339Z,8.13
2023-04-01T07:14:56.909Z,8.16
2023-04-01T07:17:27.184Z,8.30
2023-04-01T07:19:58.474Z,8.49
2023-04-01T07:22:31.011Z,8.68
2023-04-01T07:24:59.843Z,8.82
2023-04-01T07:27:28.851Z,8.79
2023-04-01T07:29:58.142Z,8.82
2023-04-01T07:32:36.180Z,8.81
2023-04-01T07:35:26.348Z,8.74
2023-04-01T07:38:10.923Z,8.71
2023-04-01T07:40:43.748Z,8.85
2023-04-01T07:43:21.925Z,8.94
2023-04-01T07:45:56.110Z,9.16
2023-04-01T07:48:29.298Z,9.18
2023-04-01T07:51:01.026Z,9.21
2023-04-01T07:53:33.282Z,9.11
2023-04-01T07:56:02.495Z,9.06
2023-04-01T07:58:39.974Z,9.06
2023-04-01T08:01:14.094Z,9.20
2023-04-01T08:03:56.605Z,9.34
2023-04-01T08:06:30.248Z,9.36
2023-04-01T08:09:04.135Z,9.45
2023-04-01T08:11:43.771Z,9.51
2023-04-01T08:14:20.850Z,9.56
2023-04-01T08:16:54.969Z,9.57
2023-04-01T08:19:31.561Z,9.51
2023-04-01T08:22:00.772Z,9.70
2023-04-01T08:24:46.583Z,9.78
2023-04-01T08:27:20.034Z,9.84
2023-04-01T08:29:50.537Z,9.68
2023-04-01T08:32:21.206Z,9.78
2023-04-01T08:38:07.183Z,9.76
2023-04-01T08:40:49.370Z,9.91
2023-04-01T08:43:21.171Z,10.08
2023-04-01T08:46:02.909Z,10.24
2023-04-01T08:48:41.684Z,10.29
2023-04-01T08:51:22.944Z,10.24
2023-04-01T08:54:06.403Z,10.28
2023-04-01T08:56:36.647Z,10.37
2023-04-01T08:59:20.450Z,10.45
2023-04-01T09:02:21.482Z,10.64
2023-04-01T09:05:18.483Z,10.77
2023-04-01T09:07:53.153Z,10.65
2023-04-01T09:10:30.201Z,10.70
2023-04-01T09:13:09.042Z,10.69
2023-04-01T09:16:21.225Z,10.70
2023-04-01T09:19:19.160Z,10.75
2023-04-01T09:22:11.439Z,10.74
2023-04-01T09:25:17.572Z,10.81
2023-04-01T09:27:47.111Z,10.70
2023-04-01T09:30:40.268Z,10.72
2023-04-01T09:33:40.035Z,10.70
2023-04-01T09:36:17.187Z,10.68
2023-04-01T09:38:56.156Z,10.78
2023-04-01T09:41:31.262Z,10.81
2023-04-01T09:44:04.714Z,10.94
2023-04-01T09:46:49.084Z,11.04
2023-04-01T09:49:33.954Z,11.15
2023-04-01T09:52:12.503Z,11.19
2023-04-01T09:54:58.607Z,11.19
2023-04-01T09:57:53.502Z,11.04
2023-04-01T10:00:31.987Z,11.03
2023-04-01T10:03:37.686Z,10.81
2023-04-01T10:06:38.974Z,10.96
2023-04-01T10:09:50.759Z,10.81
2023-04-01T10:12:48.189Z,10.85
2023-04-01T10:15:40.216Z,10.89
2023-04-01T10:18:26.496Z,11.02
2023-04-01T10:21:35.692Z,11.11
2023-04-01T10:24:36.667Z,11.08
2023-04-01T10:27:24.006Z,11.16
2023-04-01T10:30:39.043Z,11.15
2023-04-01T10:33:57.027Z,11.20
2023-04-01T10:36:42.607Z,11.16
2023-04-01T10:39:22.538Z,11.08
2023-04-01T10:42:13.936Z,10.80
2023-04-01T10:45:06.867Z,10.64
2023-04-01T10:48:03.734Z,10.51
2023-04-01T10:50:45.146Z,10.45
2023-04-01T10:53:45.042Z,10.34
2023-04-01T10:56:42.644Z,10.47
2023-04-01T10:59:45.624Z,10.33
2023-04-01T11:02:56.982Z,10.28
2023-04-01T11:06:27.352Z,10.34
2023-04-01T11:09:28.619Z,10.44
2023-04-01T11:12:36.904Z,10.42
2023-04-01T11:15:26.037Z,10.37
2023-04-01T11:18:09.218Z,10.37
2023-04-01T11:21:16.029Z,10.28
2023-04-01T11:24:04.507Z,10.17
2023-04-01T11:26:36.080Z,10.13
2023-04-01T11:29:21.240Z,9.91
2023-04-01T11:31:57.621Z,9.47
2023-04-01T11:35:04.092Z,9.41
2023-04-01T11:37:42.131Z,8.78
2023-04-01T11:40:24.536Z,8.78
2023-04-01T11:42:58.950Z,8.56
2023-04-01T11:45:35.985Z,8.65
2023-04-01T11:48:18.191Z,8.69
2023-04-01T11:50:58.114Z,8.60
2023-04-01T11:53:34.897Z,8.46
2023-04-01T11:56:11.729Z,8.39
2023-04-01T11:58:56.702Z,8.39
2023-04-01T12:01:34.199Z,8.29
2023-04-01T12:04:35.070Z,8.37
2023-04-01T12:07:08.309Z,8.32
2023-04-01T12:09:44.082Z,8.35
2023-04-01T12:12:18.741Z,8.32
2023-04-01T12:14:52.187Z,8.16
2023-04-01T12:17:30.429Z,8.21
2023-04-01T12:20:01.404Z,8.10
2023-04-01T12:22:36.772Z,8.13
2023-04-01T12:25:19.937Z,8.10
2023-04-01T12:27:54.228Z,8.01
2023-04-01T12:30:45.195Z,8.11
2023-04-01T12:33:24.986Z,8.01
2023-04-01T12:35:58.752Z,8.01
2023-04-01T12:38:33.844Z,8.00
2023-04-01T12:41:12.087Z,8.03
2023-04-01T12:44:18.626Z,8.06
2023-04-01T12:47:01.316Z,8.04
2023-04-01T12:49:51.839Z,8.06
2023-04-01T12:52:21.806Z,8.12
2023-04-01T12:55:24.538Z,8.09
2023-04-01T12:57:57.817Z,8.13
2023-04-01T13:00:34.855Z,8.23
2023-04-01T13:03:15.460Z,8.20
2023-04-01T13:06:12.522Z,8.20
2023-04-01T13:08:42.876Z,8.15
2023-04-01T13:11:12.117Z,8.19
2023-04-01T13:13:49.672Z,8.06
2023-04-01T13:16:19.366Z,8.03
2023-04-01T13:18:56.411Z,8.06
2023-04-01T13:21:30.731Z,8.02
2023-04-01T13:24:03.261Z,8.03
2023-04-01T13:26:37.022Z,8.06
2023-04-01T13:29:09.718Z,8.05
2023-04-01T13:31:53.929Z,7.98
2023-04-01T13:34:34.730Z,7.93
2023-04-01T13:37:11.214Z,7.97
2023-04-01T13:39:53.349Z,8.03
2023-04-01T13:42:25.893Z,8.01
2023-04-01T13:44:58.922Z,8.02
2023-04-01T13:47:41.897Z,8.01
2023-04-01T13:50:29.215Z,8.05
2023-04-01T13:53:41.328Z,8.06
2023-04-01T13:56:27.480Z,8.05
2023-04-01T13:59:04.490Z,8.14
2023-04-01T14:01:39.671Z,8.20
2023-04-01T14:04:32.818Z,8.26
2023-04-01T14:07:07.362Z,8.30
2023-04-01T14:09:47.625Z,8.32
2023-04-01T14:12:24.278Z,8.34
2023-04-01T14:15:03.250Z,8.41
2023-04-01T14:17:45.582Z,8.40
2023-04-01T14:20:18.283Z,8.46
2023-04-01T14:22:48.077Z,8.43
2023-04-01T14:25:41.073Z,8.41
2023-04-01T14:28:16.730Z,8.40
2023-04-01T14:31:07.341Z,8.41
2023-04-01T14:33:43.768Z,8.36
2023-04-01T14:36:36.318Z,8.42
2023-04-01T14:39:09.090Z,8.47
2023-04-01T14:41:44.607Z,8.51
2023-04-01T14:44:29.806Z,8.46
2023-04-01T14:47:24.858Z,8.43
2023-04-01T14:49:55.334Z,8.50
2023-04-01T14:52:28.743Z,8.54
2023-04-01T14:54:56.921Z,8.66
2023-04-01T14:57:27.718Z,8.76
2023-04-01T15:00:02.324Z,8.80
2023-04-01T15:02:42.914Z,8.85
2023-04-01T15:05:17.895Z,8.95
2023-04-01T15:08:02.964Z,8.95
2023-04-01T15:10:52.943Z,8.96
2023-04-01T15:13:27.776Z,9.07
2023-04-01T15:16:06.545Z,9.03
2023-04-01T15:18:41.820Z,9.14
2023-04-01T15:21:19.407Z,9.17
2023-04-01T15:23:56.818Z,9.19
2023-04-01T15:26:34.282Z,9.25
2023-04-01T15:29:10.432Z,9.32
2023-04-01T15:31:42.751Z,9.31
2023-04-01T15:34:20.381Z,9.37
2023-04-01T15:36:55.456Z,9.43
2023-04-01T15:39:26.634Z,9.47
2023-04-01T15:42:08.486Z,9.50
2023-04-01T15:44:45.486Z,9.42
2023-04-01T15:47:38.969Z,9.38
2023-04-01T15:53:46.470Z,9.27
2023-04-01T15:56:24.925Z,9.27
2023-04-01T15:59:01.417Z,9.28
2023-04-01T16:01:36.952Z,9.24
2023-04-01T16:04:20.045Z,9.27
2023-04-01T16:06:58.606Z,9.25
2023-04-01T16:10:03.604Z,9.28
2023-04-01T16:12:43.717Z,9.29
2023-04-01T16:15:19.557Z,9.22
2023-04-01T16:18:08.377Z,9.15
2023-04-01T16:20:46.070Z,9.15
2023-04-01T16:23:19.688Z,9.21
2023-04-01T16:25:52.057Z,9.24
2023-04-01T16:28:24.284Z,9.17
2023-04-01T16:30:57.196Z,9.15
2023-04-01T16:33:29.769Z,9.13
2023-04-01T16:36:00.366Z,9.11
2023-04-01T16:38:35.732Z,9.04
2023-04-01T16:41:14.013Z,9.03
2023-04-01T16:43:47.579Z,9.00
2023-04-01T16:46:24.153Z,8.97
2023-04-01T16:49:02.319Z,8.87
2023-04-01T16:51:38.215Z,8.85
2023-04-01T16:54:08.857Z,8.88
2023-04-01T16:56:44.339Z,8.79
2023-04-01T16:59:20.746Z,8.79
2023-04-01T17:01:53.694Z,8.75
2023-04-01T17:04:27.679Z,8.75
2023-04-01T17:06:59.635Z,8.77
2023-04-01T17:09:39.095Z,8.77
2023-04-01T17:12:12.461Z,8.76
2023-04-01T17:14:46.834Z,8.74
2023-04-01T17:17:21.624Z,8.69
2023-04-01T17:19:59.668Z,8.74
2023-04-01T17:22:34.727Z,8.69
2023-04-01T17:25:18.584Z,8.73
2023-04-01T17:27:54.065Z,8.69
2023-04-01T17:30:29.986Z,8.68
2023-04-01T17:33:25.382Z,8.64
2023-04-01T17:35:59.879Z,8.56
2023-04-01T17:38:42.972Z,8.56
2023-04-01T17:41:18.316Z,8.47
2023-04-01T17:43:51.131Z,8.45
2023-04-01T17:46:31.890Z,8.47
2023-04-01T17:49:04.941Z,8.44
2023-04-01T17:51:36.319Z,8.46
2023-04-01T17:54:13.699Z,8.41
2023-04-01T17:56:50.641Z,8.38
2023-04-01T17:59:24.202Z,8.32
2023-04-01T18:02:00.355Z,8.29
2023-04-01T18:04:42.688Z,8.28
2023-04-01T18:07:26.288Z,8.31
2023-04-01T18:10:02.278Z,8.28
2023-04-01T18:12:34.934Z,8.26
2023-04-01T18:15:13.940Z,8.22
2023-04-01T18:17:51.843Z,8.15
2023-04-01T18:20:29.861Z,8.17
2023-04-01T18:23:01.151Z,8.16
2023-04-01T18:25:31.283Z,8.11
2023-04-01T18:28:17.434Z,8.07
2023-04-01T18:30:53.594Z,8.06
2023-04-01T18:33:25.324Z,7.99
2023-04-01T18:35:55.734Z,7.97
2023-04-01T18:38:30.418Z,8.01
2023-04-01T18:41:14.188Z,7.92
2023-04-01T18:43:48.696Z,7.89
2023-04-01T18:46:24.710Z,7.84
2023-04-01T18:48:57.028Z,7.77
2023-04-01T18:51:28.566Z,7.70
2023-04-01T18:53:59.508Z,7.66
2023-04-01T18:56:30.452Z,7.58
2023-04-01T18:59:06.357Z,7.55
2023-04-01T19:01:41.627Z,7.55
2023-04-01T19:04:21.452Z,7.52
2023-04-01T19:06:52.839Z,7.52
2023-04-01T19:09:24.331Z,7.53
2023-04-01T19:12:33.323Z,7.49
2023-04-01T19:15:22.508Z,7.41
2023-04-01T19:17:59.299Z,7.34
2023-04-01T19:20:31.629Z,7.36
2023-04-01T19:23:28.177Z,7.34
2023-04-01T19:25:57.580Z,7.36
2023-04-01T19:28:33.702Z,7.23
2023-04-01T19:31:05.013Z,7.19
2023-04-01T19:33:46.917Z,7.25
2023-04-01T19:36:21.664Z,7.23
2023-04-01T19:38:55.722Z,7.17
2023-04-01T19:41:34.555Z,7.21
2023-04-01T19:44:07.509Z,7.21
2023-04-01T19:46:38.737Z,7.17
2023-04-01T19:49:23.536Z,7.09
2023-04-01T19:51:54.553Z,7.07
2023-04-01T19:54:29.208Z,6.94
2023-04-01T19:57:05.456Z,6.94
2023-04-01T19:59:37.068Z,6.90
2023-04-01T20:02:26.629Z,6.88
2023-04-01T20:04:57.309Z,6.81
2023-04-01T20:07:29.279Z,6.79
2023-04-01T20:10:00.875Z,6.73
2023-04-01T20:12:38.349Z,6.72
2023-04-01T20:15:07.086Z,6.65
2023-04-01T20:17:40.984Z,6.62
2023-04-01T20:20:21.854Z,6.61
2023-04-01T20:23:02.021Z,6.55
2023-04-01T20:25:34.431Z,6.53
2023-04-01T20:28:04.418Z,6.53
2023-04-01T20:30:55.436Z,6.48
2023-04-01T20:33:37.682Z,6.44
2023-04-01T20:36:15.094Z,6.42
2023-04-01T20:39:12.107Z,6.42
2023-04-01T20:41:42.913Z,6.41
2023-04-01T20:44:13.036Z,6.42
2023-04-01T20:46:50.994Z,6.42
2023-04-01T20:49:45.995Z,6.43
2023-04-01T20:52:28.200Z,6.42
2023-04-01T20:55:20.536Z,6.47
2023-04-01T20:57:54.596Z,6.48
2023-04-01T21:00:30.585Z,6.49
2023-04-01T21:03:09.378Z,6.49
2023-04-01T21:05:53.905Z,6.45
2023-04-01T21:08:27.786Z,6.48
2023-04-01T21:11:03.770Z,6.48
2023-04-01T21:13:47.226Z,6.45
2023-04-01T21:16:26.049Z,6.45
2023-04-01T21:19:06.284Z,6.48
2023-04-01T21:21:52.151Z,6.45
2023-04-01T21:24:45.205Z,6.49
2023-04-01T21:27:18.415Z,6.46
2023-04-01T21:29:55.462Z,6.45
2023-04-01T21:32:33.521Z,6.47
2023-04-01T21:35:06.781Z,6.46
2023-04-01T21:37:45.239Z,6.48
2023-04-01T21:41:09.702Z,6.52
2023-04-01T21:44:25.672Z,6.56
2023-04-01T21:47:24.465Z,6.56
2023-04-01T21:50:11.896Z,6.58
2023-04-01T21:53:02.278Z,6.59
2023-04-01T21:56:03.423Z,6.63
2023-04-01T21:58:48.952Z,6.66
2023-04-01T22:01:29.617Z,6.70
2023-04-01T22:04:21.601Z,6.72
2023-04-01T22:06:52.551Z,6.73
2023-04-01T22:09:23.736Z,6.77
2023-04-01T22:12:02.469Z,6.79
2023-04-01T22:14:34.526Z,6.81
2023-04-01T22:17:09.325Z,6.83
2023-04-01T22:19:42.330Z,6.84
2023-04-01T22:22:15.382Z,6.84
2023-04-01T22:24:51.775Z,6.85
2023-04-01T22:27:24.781Z,6.84
2023-04-01T22:30:01.422Z,6.86
2023-04-01T22:32:34.008Z,6.85
2023-04-01T22:35:08.858Z,6.87
2023-04-01T22:37:42.462Z,6.88
2023-04-01T22:40:22.573Z,6.86
2023-04-01T22:42:56.220Z,6.86
2023-04-01T22:45:45.435Z,6.89
2023-04-01T22:48:17.879Z,6.90
2023-04-01T22:50:48.990Z,6.89
2023-04-01T22:53:24.596Z,6.88
2023-04-01T22:55:54.080Z,6.86
2023-04-01T22:58:26.147Z,6.86
2023-04-01T23:00:57.759Z,6.89
2023-04-01T23:03:29.881Z,6.85
2023-04-01T23:05:58.195Z,6.85
2023-04-01T23:09:07.132Z,6.86
2023-04-01T23:11:37.271Z,6.82
2023-04-01T23:14:26.869Z,6.85
2023-04-01T23:16:56.932Z,6.82
2023-04-01T23:19:27.178Z,6.84
2023-04-01T23:22:01.415Z,6.80
2023-04-01T23:24:33.895Z,6.84
2023-04-01T23:27:04.340Z,6.85
2023-04-01T23:29:32.012Z,6.86
2023-04-01T23:32:00.798Z,6.86
2023-04-01T23:34:32.712Z,6.83
2023-04-01T23:37:04.253Z,6.82
2023-04-01T23:39:34.756Z,6.80
2023-04-01T23:42:05.391Z,6.79
2023-04-01T23:44:33.469Z,6.80
2023-04-01T23:47:01.765Z,6.79
2023-04-01T23:49:35.992Z,6.79
2023-04-01T23:52:06.663Z,6.80
2023-04-01T23:54:36.170Z,6.80
2023-04-01T23:57:11.667Z,6.78
2023-04-01T23:59:39.423Z,6.78
